Time;durP1;ratioP1;P1;durP2;ratioP2;P2;SDS_P1;SDS_P2;PMS_P1;PMS_P2;Temp;Humidity;BMP_temperature;BMP_pressure;BME280_temperature;BME280_humidity;BME280_pressure;Samples;Min_cycle;Max_cycle;Signal;HPM_P1;HPM_P2
2024/02/01 00:00:37;;;;;;;41.60;27.15;;;;;;;-145.63;100.00;61273.97;5030120;28;20047;-65
2024/02/01 00:03:03;;;;;;;44.08;26.75;;;;;;;-145.63;100.00;61273.97;5020016;28;20032;-65
2024/02/01 00:05:28;;;;;;;43.45;26.83;;;;;;;-145.63;100.00;61273.97;5035398;28;20029;-66
2024/02/01 00:07:55;;;;;;;43.10;26.83;;;;;;;-145.63;100.00;61273.97;5015097;28;20026;-65
2024/02/01 00:10:21;;;;;;;41.15;26.27;;;;;;;-145.63;100.00;61273.97;5030077;28;20022;-65
2024/02/01 00:12:47;;;;;;;40.38;26.15;;;;;;;-145.63;100.00;61273.97;5034997;28;20038;-65
2024/02/01 00:15:13;;;;;;;38.63;25.75;;;;;;;-145.63;100.00;61273.97;5029255;28;20497;-65
2024/02/01 00:17:39;;;;;;;43.13;27.02;;;;;;;-145.63;100.00;61273.97;5015496;28;20061;-66
2024/02/01 00:20:06;;;;;;;40.85;26.92;;;;;;;-145.63;100.00;61273.97;5034319;28;20367;-65
2024/02/01 00:22:31;;;;;;;39.58;27.60;;;;;;;-145.63;100.00;61273.97;5032415;28;20029;-66
2024/02/01 00:24:58;;;;;;;45.22;28.02;;;;;;;-145.63;100.00;61273.97;5034440;28;20091;-66
2024/02/01 00:27:24;;;;;;;44.58;27.45;;;;;;;-145.63;100.00;61273.97;5034483;28;20036;-66
2024/02/01 00:29:50;;;;;;;43.95;26.42;;;;;;;-145.63;100.00;61273.97;5034133;28;20117;-66
2024/02/01 00:32:15;;;;;;;43.58;28.17;;;;;;;-145.63;100.00;61273.97;5034881;28;20112;-67
2024/02/01 00:34:44;;;;;;;40.03;26.25;;;;;;;-145.63;100.00;61273.97;5034062;28;20037;-66
2024/02/01 00:37:09;;;;;;;44.25;27.75;;;;;;;-145.63;100.00;61273.97;5020891;28;20537;-68
2024/02/01 00:39:35;;;;;;;39.05;26.00;;;;;;;-145.63;100.00;61273.97;5022757;28;20042;-67
2024/02/01 00:42:01;;;;;;;40.47;27.10;;;;;;;-145.63;100.00;61273.97;5029960;28;20628;-66
2024/02/01 00:44:26;;;;;;;43.05;26.48;;;;;;;-145.63;100.00;61273.97;5014508;28;20117;-66
2024/02/01 00:46:52;;;;;;;38.40;25.38;;;;;;;-145.63;100.00;61273.97;5032924;28;20037;-66
2024/02/01 00:49:17;;;;;;;41.13;26.42;;;;;;;-145.63;100.00;61273.97;5031700;28;20029;-67
2024/02/01 00:51:43;;;;;;;40.70;26.02;;;;;;;-145.63;100.00;61273.97;5023445;28;20123;-67
2024/02/01 00:54:09;;;;;;;37.63;24.88;;;;;;;-145.63;100.00;61273.97;5033651;28;20562;-65
2024/02/01 00:56:34;;;;;;;33.92;23.80;;;;;;;-145.63;100.00;61273.97;5034085;28;20029;-65
2024/02/01 00:59:00;;;;;;;39.13;25.58;;;;;;;-145.63;100.00;61273.97;5034256;28;20040;-65
2024/02/01 01:01:26;;;;;;;36.97;24.80;;;;;;;-145.63;100.00;61273.97;5027961;28;20030;-67
2024/02/01 01:03:51;;;;;;;34.47;22.95;;;;;;;-145.63;100.00;61273.97;5024275;28;20393;-68
2024/02/01 01:06:17;;;;;;;37.17;23.98;;;;;;;-145.63;100.00;61273.97;5028844;28;20029;-66
2024/02/01 01:08:43;;;;;;;34.58;22.98;;;;;;;-145.63;100.00;61273.97;5033521;28;20044;-67
2024/02/01 01:11:08;;;;;;;33.97;23.38;;;;;;;-145.63;100.00;61273.97;5045626;28;20498;-68
2024/02/01 01:13:34;;;;;;;32.45;23.20;;;;;;;-145.63;100.00;61273.97;5052974;28;20373;-66
2024/02/01 01:16:00;;;;;;;33.13;22.10;;;;;;;-145.63;100.00;61273.97;5041564;28;20086;-66
2024/02/01 01:18:27;;;;;;;34.55;22.52;;;;;;;-145.63;100.00;61273.97;5030952;28;20068;-66
2024/02/01 01:20:52;;;;;;;34.85;22.77;;;;;;;-145.63;100.00;61273.97;5031549;28;20113;-66
2024/02/01 01:23:18;;;;;;;37.35;23.90;;;;;;;-145.63;100.00;61273.97;5033633;28;20116;-66
2024/02/01 01:25:44;;;;;;;37.58;22.80;;;;;;;-145.63;100.00;61273.97;5032916;28;20057;-68
2024/02/01 01:28:09;;;;;;;34.40;23.33;;;;;;;-145.63;100.00;61273.97;5033260;28;20135;-66
2024/02/01 01:30:35;;;;;;;34.45;23.90;;;;;;;-145.63;100.00;61273.97;5032867;28;20059;-64
2024/02/01 01:33:01;;;;;;;37.53;25.20;;;;;;;-145.63;100.00;61273.97;5032978;28;20595;-66
2024/02/01 01:35:27;;;;;;;39.47;22.73;;;;;;;-145.63;100.00;61273.97;5033148;28;20068;-67
2024/02/01 01:37:53;;;;;;;35.22;23.73;;;;;;;-145.63;100.00;61273.97;5014858;28;20108;-65
2024/02/01 01:40:18;;;;;;;35.53;23.52;;;;;;;-145.63;100.00;61273.97;5026738;28;20045;-65
2024/02/01 01:42:47;;;;;;;34.28;23.75;;;;;;;-145.63;100.00;61273.97;5023756;28;20752;-65
2024/02/01 01:45:12;;;;;;;36.28;24.73;;;;;;;-145.63;100.00;61273.97;5017589;28;20052;-66
2024/02/01 01:47:38;;;;;;;39.95;24.75;;;;;;;-145.63;100.00;61273.97;5032778;28;20340;-65
2024/02/01 01:50:06;;;;;;;35.72;23.38;;;;;;;-145.63;100.00;61273.97;5021386;28;20057;-66
2024/02/01 01:52:35;;;;;;;34.33;23.38;;;;;;;-145.63;100.00;61273.97;5032754;28;20642;-65
2024/02/01 01:55:01;;;;;;;36.28;23.77;;;;;;;-145.63;100.00;61273.97;5032542;28;20083;-66
2024/02/01 01:57:28;;;;;;;37.67;22.88;;;;;;;-145.63;100.00;61273.97;5032934;28;20033;-66
2024/02/01 01:59:55;;;;;;;34.20;23.08;;;;;;;-145.63;100.00;61273.97;5032652;28;20071;-66
2024/02/01 02:02:21;;;;;;;36.22;24.15;;;;;;;-145.63;100.00;61273.97;5032674;28;20104;-66
2024/02/01 02:04:50;;;;;;;38.60;24.40;;;;;;;-145.63;100.00;61273.97;5015318;28;20090;-67
2024/02/01 02:07:16;;;;;;;43.20;26.02;;;;;;;-145.63;100.00;61273.97;5018089;28;20559;-70
2024/02/01 02:09:41;;;;;;;36.28;24.27;;;;;;;-145.63;100.00;61273.97;5021349;28;20030;-66
2024/02/01 02:12:07;;;;;;;40.30;25.23;;;;;;;-145.63;100.00;61273.97;5047975;28;20037;-66
2024/02/01 02:14:33;;;;;;;36.63;24.42;;;;;;;-145.63;100.00;61273.97;5032426;28;20087;-66
2024/02/01 02:16:59;;;;;;;35.65;24.10;;;;;;;-145.63;100.00;61273.97;5032381;28;20025;-65
2024/02/01 02:19:25;;;;;;;32.83;23.08;;;;;;;-145.63;100.00;61273.97;5032485;28;20064;-65
2024/02/01 02:21:53;;;;;;;35.03;25.02;;;;;;;-145.63;100.00;61273.97;5022534;28;20025;-66
2024/02/01 02:24:19;;;;;;;35.72;23.95;;;;;;;-145.63;100.00;61273.97;5016949;28;20036;-65
2024/02/01 02:26:47;;;;;;;35.83;23.67;;;;;;;-145.63;100.00;61273.97;5032541;28;20060;-66
2024/02/01 02:29:14;;;;;;;36.22;23.95;;;;;;;-145.63;100.00;61273.97;5031846;28;20666;-66
2024/02/01 02:31:41;;;;;;;33.33;23.67;;;;;;;-145.63;100.00;61273.97;5031839;28;20056;-67
2024/02/01 02:34:07;;;;;;;34.78;23.92;;;;;;;-145.63;100.00;61273.97;5031968;28;20094;-65
2024/02/01 02:36:32;;;;;;;36.83;24.80;;;;;;;-145.63;100.00;61273.97;5032121;28;20491;-67
2024/02/01 02:39:00;;;;;;;32.75;22.00;;;;;;;-145.63;100.00;61273.97;5032012;28;20045;-67
2024/02/01 02:41:25;;;;;;;36.75;24.38;;;;;;;-145.63;100.00;61273.97;5023216;28;20030;-66
2024/02/01 02:43:52;;;;;;;33.25;23.48;;;;;;;-145.63;100.00;61273.97;5029423;28;20033;-66
2024/02/01 02:46:17;;;;;;;34.50;23.75;;;;;;;-145.63;100.00;61273.97;5031613;28;20029;-66
2024/02/01 02:48:43;;;;;;;36.75;24.42;;;;;;;-145.63;100.00;61273.97;5031808;28;20534;-68
2024/02/01 02:51:09;;;;;;;35.90;24.15;;;;;;;-145.63;100.00;61273.97;5017795;28;20021;-66
2024/02/01 02:53:34;;;;;;;35.47;24.52;;;;;;;-145.63;100.00;61273.97;5031695;28;20091;-66
2024/02/01 02:56:00;;;;;;;34.83;24.65;;;;;;;-145.63;100.00;61273.97;5031576;28;20034;-65
2024/02/01 02:58:26;;;;;;;31.77;22.27;;;;;;;-145.63;100.00;61273.97;5030990;28;20028;-66
2024/02/01 03:00:52;;;;;;;33.65;22.52;;;;;;;-145.63;100.00;61273.97;5025952;28;20033;-68
2024/02/01 03:03:18;;;;;;;31.13;21.83;;;;;;;-145.63;100.00;61273.97;5027270;28;20034;-66
2024/02/01 03:05:44;;;;;;;32.15;21.40;;;;;;;-145.63;100.00;61273.97;5018063;28;20435;-67
2024/02/01 03:08:11;;;;;;;30.48;20.95;;;;;;;-145.63;100.00;61273.97;5011966;28;20045;-66
2024/02/01 03:10:37;;;;;;;30.15;21.30;;;;;;;-145.63;100.00;61273.97;5035329;28;20021;-66
2024/02/01 03:13:09;;;;;;;31.85;21.20;;;;;;;-145.63;100.00;61273.97;5040702;28;20336;-66
2024/02/01 03:15:36;;;;;;;32.22;19.98;;;;;;;-145.63;100.00;61273.97;5024631;28;20034;-65
2024/02/01 03:18:03;;;;;;;30.58;21.25;;;;;;;-145.63;100.00;61273.97;5013889;28;20126;-66
2024/02/01 03:20:29;;;;;;;30.20;19.52;;;;;;;-145.63;100.00;61273.97;5031950;28;20100;-65
2024/02/01 03:22:55;;;;;;;27.02;19.63;;;;;;;-145.63;100.00;61273.97;5013751;28;20110;-65
2024/02/01 03:25:28;;;;;;;27.83;19.65;;;;;;;-145.63;100.00;61273.97;5024738;28;20109;-66
2024/02/01 03:28:04;;;;;;;25.52;18.40;;;;;;;-145.63;100.00;61273.97;5031203;28;20030;-66
2024/02/01 03:30:37;;;;;;;27.45;18.23;;;;;;;-145.63;100.00;61273.97;5031358;28;20443;-67
2024/02/01 03:33:03;;;;;;;27.52;18.45;;;;;;;-145.63;100.00;61273.97;5031087;28;20022;-65
2024/02/01 03:35:31;;;;;;;27.08;18.88;;;;;;;-145.63;100.00;61273.97;5032074;28;20455;-66
2024/02/01 03:38:01;;;;;;;27.98;18.20;;;;;;;-145.63;100.00;61273.97;5035406;28;20077;-66
2024/02/01 03:40:27;;;;;;;30.15;19.95;;;;;;;-145.63;100.00;61273.97;5034300;28;20041;-66
2024/02/01 03:42:53;;;;;;;30.33;18.83;;;;;;;-145.63;100.00;61273.97;5024335;28;20033;-65
2024/02/01 03:45:19;;;;;;;24.20;16.50;;;;;;;-145.63;100.00;61273.97;5035357;28;20060;-66
2024/02/01 03:47:46;;;;;;;26.55;17.75;;;;;;;-145.63;100.00;61273.97;5034811;28;20471;-65
2024/02/01 03:50:13;;;;;;;22.88;17.50;;;;;;;-145.63;100.00;61273.97;5025482;28;20038;-65
2024/02/01 03:52:43;;;;;;;25.27;16.88;;;;;;;-145.63;100.00;61273.97;5030333;28;20029;-65
2024/02/01 03:55:16;;;;;;;25.50;17.17;;;;;;;-145.63;100.00;61273.97;5034466;28;20104;-67
2024/02/01 03:57:45;;;;;;;24.45;17.27;;;;;;;-145.63;100.00;61273.97;5034630;28;20033;-65
2024/02/01 04:00:25;;;;;;;20.63;16.10;;;;;;;-145.63;100.00;61273.97;5033877;28;20041;-65
2024/02/01 04:02:58;;;;;;;24.30;16.88;;;;;;;-145.63;100.00;61273.97;5014286;28;20030;-66
2024/02/01 04:05:25;;;;;;;24.23;17.02;;;;;;;-145.63;100.00;61273.97;5031193;28;20018;-64
2024/02/01 04:07:51;;;;;;;22.02;15.88;;;;;;;-145.63;100.00;61273.97;5031429;28;20033;-66
2024/02/01 04:10:16;;;;;;;26.02;17.80;;;;;;;-145.63;100.00;61273.97;5040457;28;20450;-64
2024/02/01 04:12:43;;;;;;;25.55;16.80;;;;;;;-145.63;100.00;61273.97;5047636;28;20037;-64
2024/02/01 04:15:09;;;;;;;23.58;16.70;;;;;;;-145.63;100.00;61273.97;5034354;28;20053;-64
2024/02/01 04:17:35;;;;;;;21.52;15.57;;;;;;;-145.63;100.00;61273.97;5034466;28;20068;-65
2024/02/01 04:20:01;;;;;;;21.77;16.83;;;;;;;-145.63;100.00;61273.97;5034581;28;20065;-65
2024/02/01 04:22:27;;;;;;;22.27;16.08;;;;;;;-145.63;100.00;61273.97;5030589;28;20029;-65
2024/02/01 04:24:53;;;;;;;22.83;15.90;;;;;;;-145.63;100.00;61273.97;5034093;28;20032;-67
2024/02/01 04:27:19;;;;;;;22.45;16.02;;;;;;;-145.63;100.00;61273.97;5034519;28;20112;-64
2024/02/01 04:29:44;;;;;;;27.33;16.25;;;;;;;-145.63;100.00;61273.97;5034440;28;20045;-65
2024/02/01 04:32:10;;;;;;;23.60;16.35;;;;;;;-145.63;100.00;61273.97;5032816;28;20025;-65
2024/02/01 04:34:38;;;;;;;25.20;16.50;;;;;;;-145.63;100.00;61273.97;5033845;28;20506;-66
2024/02/01 04:37:07;;;;;;;23.13;16.15;;;;;;;-145.63;100.00;61273.97;5032223;28;20041;-64
2024/02/01 04:39:53;;;;;;;25.40;16.20;;;;;;;-145.63;100.00;61273.97;5033811;28;20037;-66
2024/02/01 04:42:23;;;;;;;22.70;16.20;;;;;;;-145.63;100.00;61273.97;5021821;28;20032;-65
2024/02/01 04:44:50;;;;;;;22.80;16.17;;;;;;;-145.63;100.00;61273.97;5033874;28;20568;-66
2024/02/01 04:47:16;;;;;;;25.65;16.38;;;;;;;-145.63;100.00;61273.97;5013310;28;20030;-63
2024/02/01 04:49:42;;;;;;;25.80;16.60;;;;;;;-145.63;100.00;61273.97;5023899;28;20419;-64
2024/02/01 04:52:08;;;;;;;23.02;16.67;;;;;;;-145.63;100.00;61273.97;5025405;28;20140;-64
2024/02/01 04:54:34;;;;;;;23.70;16.17;;;;;;;-145.63;100.00;61273.97;5033903;28;20022;-65
2024/02/01 04:57:03;;;;;;;24.92;16.05;;;;;;;-145.63;100.00;61273.97;5033401;28;20384;-65
2024/02/01 04:59:29;;;;;;;25.77;17.23;;;;;;;-145.63;100.00;61273.97;5033505;28;20033;-65
2024/02/01 05:01:55;;;;;;;26.30;16.90;;;;;;;-145.63;100.00;61273.97;5033576;28;20405;-66
2024/02/01 05:04:21;;;;;;;25.25;16.83;;;;;;;-145.63;100.00;61273.97;5021547;28;20034;-65
2024/02/01 05:06:47;;;;;;;27.80;17.25;;;;;;;-145.63;100.00;61273.97;5020799;28;20034;-65
2024/02/01 05:09:25;;;;;;;24.52;17.42;;;;;;;-145.63;100.00;61273.97;5016625;28;20132;-65
2024/02/01 05:11:54;;;;;;;26.38;16.42;;;;;;;-145.63;100.00;61273.97;5052029;28;20036;-66
2024/02/01 05:14:21;;;;;;;23.70;16.42;;;;;;;-145.63;100.00;61273.97;5014321;28;20045;-65
2024/02/01 05:16:49;;;;;;;24.63;17.00;;;;;;;-145.63;100.00;61273.97;5027867;28;20025;-65
2024/02/01 05:19:15;;;;;;;28.38;17.17;;;;;;;-145.63;100.00;61273.97;5033290;28;20459;-64
2024/02/01 05:21:41;;;;;;;23.48;16.70;;;;;;;-145.63;100.00;61273.97;5026684;28;20053;-65
2024/02/01 05:24:13;;;;;;;25.85;16.67;;;;;;;-145.63;100.00;61273.97;5015193;28;20119;-65
2024/02/01 05:26:46;;;;;;;28.65;17.10;;;;;;;-145.63;100.00;61273.97;5032897;28;20037;-63
2024/02/01 05:29:15;;;;;;;24.25;16.45;;;;;;;-145.63;100.00;61273.97;5012207;28;20065;-66
2024/02/01 05:31:47;;;;;;;27.13;17.65;;;;;;;-145.63;100.00;61273.97;5028106;28;20441;-65
2024/02/01 05:34:15;;;;;;;25.70;17.70;;;;;;;-145.63;100.00;61273.97;5032944;28;20454;-65
2024/02/01 05:36:41;;;;;;;26.45;17.58;;;;;;;-145.63;100.00;61273.97;5032653;28;20506;-65
2024/02/01 05:39:06;;;;;;;25.23;16.70;;;;;;;-145.63;100.00;61273.97;5031591;28;20136;-65
2024/02/01 05:41:32;;;;;;;27.95;18.00;;;;;;;-145.63;100.00;61273.97;5023094;28;20034;-65
2024/02/01 05:44:07;;;;;;;26.50;16.10;;;;;;;-145.63;100.00;61273.97;5026359;28;20029;-65
2024/02/01 05:46:33;;;;;;;25.63;16.98;;;;;;;-145.63;100.00;61273.97;5023977;28;20040;-64
2024/02/01 05:48:59;;;;;;;25.65;17.38;;;;;;;-145.63;100.00;61273.97;5022806;28;20418;-64
2024/02/01 05:51:24;;;;;;;31.23;18.33;;;;;;;-145.63;100.00;61273.97;5024076;28;20033;-65
2024/02/01 05:53:50;;;;;;;31.77;18.42;;;;;;;-145.63;100.00;61273.97;5020721;28;20046;-65
2024/02/01 05:56:15;;;;;;;26.73;17.92;;;;;;;-145.63;100.00;61273.97;5031120;28;20387;-64
2024/02/01 05:58:41;;;;;;;27.38;16.85;;;;;;;-145.63;100.00;61273.97;5030981;28;20030;-64
2024/02/01 06:01:16;;;;;;;29.50;18.05;;;;;;;-145.63;100.00;61273.97;5022675;28;20029;-66
2024/02/01 06:03:42;;;;;;;29.58;17.48;;;;;;;-145.63;100.00;61273.97;5019237;28;20099;-65
2024/02/01 06:06:10;;;;;;;28.85;18.10;;;;;;;-145.63;100.00;61273.97;5030349;28;20033;-65
2024/02/01 06:08:35;;;;;;;28.63;18.23;;;;;;;-145.63;100.00;61273.97;5028399;28;20429;-66
2024/02/01 06:11:01;;;;;;;28.95;18.30;;;;;;;-145.63;100.00;61273.97;5030867;28;20088;-65
2024/02/01 06:13:26;;;;;;;30.98;18.88;;;;;;;-145.63;100.00;61273.97;5023990;28;20022;-66
2024/02/01 06:15:53;;;;;;;28.25;18.98;;;;;;;-145.63;100.00;61273.97;5031128;28;20477;-65
2024/02/01 06:18:19;;;;;;;32.00;19.83;;;;;;;-145.63;100.00;61273.97;5032557;28;20030;-66
2024/02/01 06:20:44;;;;;;;29.52;19.42;;;;;;;-145.63;100.00;61273.97;5031097;28;20033;-65
2024/02/01 06:23:13;;;;;;;33.53;20.73;;;;;;;-145.63;100.00;61273.97;5031876;28;20461;-66
2024/02/01 06:25:39;;;;;;;33.60;20.17;;;;;;;-145.63;100.00;61273.97;5031852;28;20026;-65
2024/02/01 06:28:05;;;;;;;31.83;18.85;;;;;;;-145.63;100.00;61273.97;5031739;28;20029;-67
2024/02/01 06:30:35;;;;;;;33.45;20.08;;;;;;;-145.63;100.00;61273.97;5031777;28;20037;-65
2024/02/01 06:33:03;;;;;;;33.85;20.75;;;;;;;-145.63;100.00;61273.97;5031583;28;20067;-65
2024/02/01 06:35:29;;;;;;;31.58;19.73;;;;;;;-145.63;100.00;61273.97;5031663;28;20021;-67
2024/02/01 06:38:17;;;;;;;33.22;19.77;;;;;;;-145.63;100.00;61273.97;5028906;28;20518;-66
2024/02/01 06:41:06;;;;;;;29.95;18.98;;;;;;;-145.63;100.00;61273.97;5028857;28;20097;-65
2024/02/01 06:44:01;;;;;;;34.05;20.45;;;;;;;-145.63;100.00;61273.97;5029475;28;20048;-68
2024/02/01 06:46:33;;;;;;;30.55;18.70;;;;;;;-145.63;100.00;61273.97;5026175;28;20022;-66
2024/02/01 06:49:17;;;;;;;33.40;19.40;;;;;;;-145.63;100.00;61273.97;5018212;28;20120;-65
2024/02/01 06:51:43;;;;;;;35.47;19.63;;;;;;;-145.63;100.00;61273.97;5028628;28;20116;-65
2024/02/01 06:54:28;;;;;;;31.75;19.75;;;;;;;-145.63;100.00;61273.97;5031428;28;20474;-65
2024/02/01 06:57:03;;;;;;;33.22;17.92;;;;;;;-145.63;100.00;61273.97;5030511;28;20033;-67
2024/02/01 06:59:43;;;;;;;33.67;20.48;;;;;;;-145.63;100.00;61273.97;5010907;28;20026;-65
2024/02/01 07:02:34;;;;;;;35.92;21.25;;;;;;;-145.63;100.00;61273.97;5029648;28;20033;-65
2024/02/01 07:05:11;;;;;;;32.67;19.88;;;;;;;-145.63;100.00;61273.97;5013992;28;20033;-65
2024/02/01 07:07:45;;;;;;;33.97;19.38;;;;;;;-145.63;100.00;61273.97;5000619;28;20026;-66
2024/02/01 07:10:17;;;;;;;35.85;20.02;;;;;;;-145.63;100.00;61273.97;5027203;28;20025;-65
2024/02/01 07:13:06;;;;;;;35.33;20.70;;;;;;;-145.63;100.00;61273.97;5049838;28;20037;-65
2024/02/01 07:15:32;;;;;;;33.22;18.80;;;;;;;-145.63;100.00;61273.97;5035805;28;20099;-67
2024/02/01 07:18:03;;;;;;;29.95;17.48;;;;;;;-145.63;100.00;61273.97;5035658;28;20413;-65
2024/02/01 07:23:33;;;;;;;26.52;17.05;;;;;;;-145.63;100.00;61273.97;5035441;28;20029;-65
2024/02/01 07:26:06;;;;;;;34.42;19.05;;;;;;;-145.63;100.00;61273.97;5035467;28;20033;-65
2024/02/01 07:58:39;;;;;;;31.98;17.92;;;;;;;-145.63;100.00;61273.97;5035210;28;20048;-65
2024/02/01 08:01:17;;;;;;;34.20;18.15;;;;;;;-145.63;100.00;61273.97;5032283;28;20159;-64
2024/02/01 08:03:58;;;;;;;31.45;17.63;;;;;;;-145.63;100.00;61273.97;5029306;28;20045;-66
2024/02/01 08:09:14;;;;;;;33.20;18.70;;;;;;;-145.63;100.00;61273.97;5015893;28;20041;-67
2024/02/01 08:11:41;;;;;;;42.50;21.00;;;;;;;-145.63;100.00;61273.97;5051438;28;20451;-64
2024/02/01 08:14:12;;;;;;;36.50;19.45;;;;;;;-145.63;100.00;61273.97;5037639;28;20025;-65
2024/02/01 08:16:42;;;;;;;34.15;20.40;;;;;;;-145.63;100.00;61273.97;5034413;28;20112;-66
2024/02/01 08:19:09;;;;;;;34.70;21.02;;;;;;;-145.63;100.00;61273.97;5025270;28;20026;-67
2024/02/01 08:21:39;;;;;;;36.08;19.83;;;;;;;-145.63;100.00;61273.97;5029153;28;20030;-66
2024/02/01 08:24:06;;;;;;;33.05;19.27;;;;;;;-145.63;100.00;61273.97;5015011;28;20041;-65
2024/02/01 08:26:41;;;;;;;34.85;20.08;;;;;;;-145.63;100.00;61273.97;5015007;28;20038;-66
2024/02/01 08:29:07;;;;;;;35.72;18.88;;;;;;;-145.63;100.00;61273.97;5031399;28;20064;-66
2024/02/01 08:31:37;;;;;;;35.42;20.42;;;;;;;-145.63;100.00;61273.97;5016721;28;20045;-66
2024/02/01 08:34:14;;;;;;;32.65;18.77;;;;;;;-145.63;100.00;61273.97;5034152;28;20068;-67
2024/02/01 08:36:43;;;;;;;35.90;19.63;;;;;;;-145.63;100.00;61273.97;5034163;28;20061;-67
2024/02/01 08:39:10;;;;;;;33.17;19.45;;;;;;;-145.63;100.00;61273.97;5033943;28;20041;-66
2024/02/01 08:41:37;;;;;;;32.83;19.35;;;;;;;-145.63;100.00;61273.97;5034273;28;20051;-66
2024/02/01 08:44:06;;;;;;;32.30;18.15;;;;;;;-145.63;100.00;61273.97;5017935;28;20037;-65
2024/02/01 08:46:32;;;;;;;30.27;17.50;;;;;;;-145.63;100.00;61273.97;5025690;28;20033;-66
2024/02/01 08:48:58;;;;;;;30.95;18.40;;;;;;;-145.63;100.00;61273.97;5033909;28;20022;-64
2024/02/01 08:51:25;;;;;;;31.15;18.00;;;;;;;-145.63;100.00;61273.97;5016856;28;20017;-65
2024/02/01 08:53:52;;;;;;;30.60;17.83;;;;;;;-145.63;100.00;61273.97;5015722;28;20117;-66
2024/02/01 08:56:20;;;;;;;31.15;18.25;;;;;;;-145.63;100.00;61273.97;5031352;28;20532;-65
2024/02/01 08:58:47;;;;;;;31.83;16.85;;;;;;;-145.63;100.00;61273.97;5033660;28;20033;-65
2024/02/01 09:01:24;;;;;;;30.25;17.40;;;;;;;-145.63;100.00;61273.97;5033575;28;20447;-66
2024/02/01 09:03:50;;;;;;;27.58;17.10;;;;;;;-145.63;100.00;61273.97;5029446;28;20037;-65
2024/02/01 09:06:17;;;;;;;28.05;17.13;;;;;;;-145.63;100.00;61273.97;5023497;28;20080;-67
2024/02/01 09:08:43;;;;;;;29.13;17.65;;;;;;;-145.63;100.00;61273.97;5013873;28;20062;-66
2024/02/01 09:11:12;;;;;;;26.42;17.10;;;;;;;-145.63;100.00;61273.97;5027963;28;20033;-66
2024/02/01 09:13:44;;;;;;;31.35;17.88;;;;;;;-145.63;100.00;61273.97;5021306;28;20038;-66
2024/02/01 09:16:18;;;;;;;32.28;18.67;;;;;;;-145.63;100.00;61273.97;5021648;28;20037;-65
2024/02/01 09:18:44;;;;;;;31.85;17.95;;;;;;;-145.63;100.00;61273.97;5033767;28;20032;-68
2024/02/01 09:21:10;;;;;;;30.77;17.50;;;;;;;-145.63;100.00;61273.97;5026960;28;20109;-66
2024/02/01 09:23:35;;;;;;;34.08;19.38;;;;;;;-145.63;100.00;61273.97;5033220;28;20379;-66
2024/02/01 09:26:01;;;;;;;30.70;17.55;;;;;;;-145.63;100.00;61273.97;5033200;28;20033;-66
2024/02/01 09:28:27;;;;;;;29.25;16.52;;;;;;;-145.63;100.00;61273.97;5015405;28;20029;-67
2024/02/01 09:30:55;;;;;;;34.00;18.60;;;;;;;-145.63;100.00;61273.97;5033116;28;20033;-67
2024/02/01 09:33:28;;;;;;;34.13;17.05;;;;;;;-145.63;100.00;61273.97;5032412;28;20033;-64
2024/02/01 09:35:57;;;;;;;33.65;17.52;;;;;;;-145.63;100.00;61273.97;5033463;28;20053;-66
2024/02/01 09:38:24;;;;;;;32.13;18.10;;;;;;;-145.63;100.00;61273.97;5033650;28;20060;-65
2024/02/01 09:40:49;;;;;;;32.45;17.85;;;;;;;-145.63;100.00;61273.97;5029323;28;20038;-67
2024/02/01 09:43:23;;;;;;;29.23;17.63;;;;;;;-145.63;100.00;61273.97;5021675;28;20033;-65
2024/02/01 09:45:50;;;;;;;28.25;16.67;;;;;;;-145.63;100.00;61273.97;5027015;28;20753;-68
2024/02/01 09:48:16;;;;;;;34.38;18.17;;;;;;;-145.63;100.00;61273.97;5032733;28;20033;-66
2024/02/01 09:50:50;;;;;;;32.40;17.67;;;;;;;-145.63;100.00;61273.97;5018706;28;20029;-65
2024/02/01 09:53:20;;;;;;;32.22;17.92;;;;;;;-145.63;100.00;61273.97;5031025;28;20399;-65
2024/02/01 09:55:48;;;;;;;29.50;17.27;;;;;;;-145.63;100.00;61273.97;5032980;28;20036;-65
2024/02/01 09:58:13;;;;;;;32.50;17.70;;;;;;;-145.63;100.00;61273.97;5032227;28;20026;-64
2024/02/01 10:00:39;;;;;;;36.05;18.75;;;;;;;-145.63;100.00;61273.97;5032236;28;20052;-65
2024/02/01 10:03:05;;;;;;;36.30;17.92;;;;;;;-145.63;100.00;61273.97;5032465;28;20030;-66
2024/02/01 10:05:32;;;;;;;32.92;17.52;;;;;;;-145.63;100.00;61273.97;5019629;28;20482;-64
2024/02/01 10:07:59;;;;;;;34.97;19.00;;;;;;;-145.63;100.00;61273.97;5027215;28;20435;-65
2024/02/01 10:10:25;;;;;;;33.83;19.25;;;;;;;-145.63;100.00;61273.97;5039083;28;20025;-66
2024/02/01 10:12:58;;;;;;;34.28;18.98;;;;;;;-145.63;100.00;61273.97;5035308;28;20029;-65
2024/02/01 10:15:30;;;;;;;34.47;18.98;;;;;;;-145.63;100.00;61273.97;5031988;28;20025;-66
2024/02/01 10:17:58;;;;;;;35.60;19.50;;;;;;;-145.63;100.00;61273.97;5012602;28;20069;-65
2024/02/01 10:20:37;;;;;;;34.67;21.42;;;;;;;-145.63;100.00;61273.97;5030275;28;20475;-66
2024/02/01 10:23:07;;;;;;;34.03;19.48;;;;;;;-145.63;100.00;61273.97;5027178;28;20497;-66
2024/02/01 10:25:39;;;;;;;38.72;20.38;;;;;;;-145.63;100.00;61273.97;5032381;28;20115;-65
2024/02/01 10:28:11;;;;;;;35.92;19.08;;;;;;;-145.63;100.00;61273.97;5032049;28;20060;-64
2024/02/01 10:30:42;;;;;;;32.65;18.67;;;;;;;-145.63;100.00;61273.97;5032046;28;20087;-65
2024/02/01 10:33:12;;;;;;;36.28;18.13;;;;;;;-145.63;100.00;61273.97;5030736;28;20120;-65
2024/02/01 10:35:38;;;;;;;33.60;18.60;;;;;;;-145.63;100.00;61273.97;5032010;28;20359;-64
2024/02/01 10:38:12;;;;;;;33.30;18.88;;;;;;;-145.63;100.00;61273.97;5031447;28;20399;-64
2024/02/01 10:40:53;;;;;;;34.47;18.50;;;;;;;-145.63;100.00;61273.97;5031984;28;20068;-64
2024/02/01 10:43:23;;;;;;;33.03;19.27;;;;;;;-145.63;100.00;61273.97;5024175;28;20104;-63
2024/02/01 10:46:07;;;;;;;31.15;18.60;;;;;;;-145.63;100.00;61273.97;5028005;28;20037;-66
2024/02/01 10:49:04;;;;;;;36.63;19.50;;;;;;;-145.63;100.00;61273.97;5031457;28;20048;-64
2024/02/01 10:51:31;;;;;;;36.50;19.90;;;;;;;-145.63;100.00;61273.97;5014391;28;20081;-65
2024/02/01 10:53:59;;;;;;;34.28;19.13;;;;;;;-145.63;100.00;61273.97;5031726;28;20040;-66
2024/02/01 10:56:29;;;;;;;29.52;17.52;;;;;;;-145.63;100.00;61273.97;5031806;28;20044;-68
2024/02/01 10:58:58;;;;;;;31.75;17.55;;;;;;;-145.63;100.00;61273.97;5031811;28;20101;-65
2024/02/01 11:01:25;;;;;;;29.23;18.08;;;;;;;-145.63;100.00;61273.97;5023125;28;20029;-67
2024/02/01 11:04:01;;;;;;;33.17;18.63;;;;;;;-145.63;100.00;61273.97;5016635;28;20063;-65
2024/02/01 11:06:28;;;;;;;36.50;20.80;;;;;;;-145.63;100.00;61273.97;5021326;28;20054;-66
2024/02/01 11:08:59;;;;;;;33.03;18.02;;;;;;;-145.63;100.00;61273.97;5031691;28;20025;-65
2024/02/01 11:11:30;;;;;;;32.83;18.70;;;;;;;-145.63;100.00;61273.97;5031597;28;20049;-64
2024/02/01 11:14:11;;;;;;;33.38;16.98;;;;;;;-145.63;100.00;61273.97;5018377;28;20030;-65
2024/02/01 11:16:50;;;;;;;33.70;18.70;;;;;;;-145.63;100.00;61273.97;5023350;28;20351;-66
2024/02/01 11:19:24;;;;;;;30.55;17.50;;;;;;;-145.63;100.00;61273.97;5031673;28;20434;-64
2024/02/01 11:21:57;;;;;;;27.10;16.73;;;;;;;-145.63;100.00;61273.97;5027240;28;20033;-64
2024/02/01 11:24:25;;;;;;;30.35;17.73;;;;;;;-145.63;100.00;61273.97;5012702;28;20041;-65
2024/02/01 11:26:57;;;;;;;29.10;17.70;;;;;;;-145.63;100.00;61273.97;5031306;28;20029;-65
2024/02/01 11:29:26;;;;;;;;;;;;;;;-145.63;100.00;61273.97;5032190;28;20117;-64
2024/02/01 11:32:03;;;;;;;27.80;16.33;;;;;;;-145.63;100.00;61273.97;5031697;28;19924;-64
2024/02/01 11:34:35;;;;;;;26.75;16.15;;;;;;;-145.63;100.00;61273.97;5031531;28;20102;-65
2024/02/01 11:37:05;;;;;;;28.50;16.60;;;;;;;-145.63;100.00;61273.97;5031076;28;20041;-65